createdAt,value
2019-02-04T00:00:48.624Z,0
2019-02-04T00:01:49.042Z,0
2019-02-04T00:02:50.760Z,0
2019-02-04T00:03:52.040Z,0
2019-02-04T00:04:53.329Z,0
2019-02-04T00:05:53.442Z,0
2019-02-04T00:06:54.427Z,0
2019-02-04T00:07:54.988Z,0
2019-02-04T00:08:56.415Z,0
2019-02-04T00:09:57.114Z,0
2019-02-04T00:11:01.437Z,0
2019-02-04T00:12:01.495Z,0
2019-02-04T00:13:01.910Z,0
2019-02-04T00:14:02.719Z,0
2019-02-04T00:15:02.878Z,0
2019-02-04T00:16:03.607Z,0
2019-02-04T00:17:04.587Z,0
2019-02-04T00:18:05.207Z,0
2019-02-04T00:19:05.931Z,0
2019-02-04T00:20:07.081Z,0
2019-02-04T00:21:07.611Z,0
2019-02-04T00:22:08.060Z,0
2019-02-04T00:23:11.292Z,0
2019-02-04T00:24:10.982Z,0
2019-02-04T00:25:11.676Z,0
2019-02-04T00:26:12.221Z,0
2019-02-04T00:27:13.472Z,0
2019-02-04T00:28:13.857Z,0
2019-02-04T00:29:14.550Z,0
2019-02-04T00:30:15.803Z,0
2019-02-04T00:31:15.945Z,0
2019-02-04T00:32:19.272Z,0
2019-02-04T00:33:17.700Z,0
2019-02-04T00:34:17.951Z,0
2019-02-04T00:35:19.932Z,0
2019-02-04T00:36:20.774Z,0
2019-02-04T00:37:21.210Z,0
2019-02-04T00:38:22.077Z,0
2019-02-04T00:39:23.094Z,0
2019-02-04T00:40:24.178Z,0
2019-02-04T00:41:24.353Z,0
2019-02-04T00:42:24.553Z,0
2019-02-04T00:43:25.713Z,0
2019-02-04T00:44:26.430Z,0
2019-02-04T00:45:26.889Z,0
2019-02-04T00:46:27.879Z,0
2019-02-04T00:47:28.031Z,0
2019-02-04T00:48:29.183Z,0
2019-02-04T00:49:32.076Z,0
2019-02-04T00:50:30.889Z,0
2019-02-04T00:51:32.585Z,0
2019-02-04T00:52:33.294Z,0
2019-02-04T00:53:34.446Z,0
2019-02-04T00:54:35.869Z,0
2019-02-04T00:55:35.319Z,0
2019-02-04T00:56:35.873Z,0
2019-02-04T00:57:37.074Z,0
2019-02-04T00:58:38.718Z,0
2019-02-04T00:59:38.668Z,0
2019-02-04T01:00:40.123Z,0
2019-02-04T01:01:41.396Z,0
2019-02-04T01:02:41.112Z,0
2019-02-04T01:03:41.814Z,0
2019-02-04T01:04:42.544Z,0
2019-02-04T01:05:43.577Z,0
2019-02-04T01:06:45.096Z,0
2019-02-04T01:07:45.240Z,0
2019-02-04T01:08:46.395Z,0
2019-02-04T01:09:47.652Z,0
2019-02-04T01:10:48.343Z,0
2019-02-04T01:11:50.043Z,0
2019-02-04T01:12:50.458Z,0
2019-02-04T01:13:50.886Z,0
2019-02-04T01:14:52.128Z,0
2019-02-04T01:15:54.272Z,0
2019-02-04T01:17:06.271Z,0
2019-02-04T01:18:09.241Z,0
2019-02-04T01:19:07.840Z,0
2019-02-04T01:20:08.824Z,0
2019-02-04T01:21:09.530Z,0
2019-02-04T01:22:10.235Z,0
2019-02-04T01:23:10.940Z,0
2019-02-04T01:24:11.669Z,0
2019-02-04T01:25:12.380Z,0
2019-02-04T01:26:13.077Z,0
2019-02-04T01:27:13.491Z,0
2019-02-04T01:28:14.088Z,0
2019-02-04T01:29:15.335Z,0
2019-02-04T01:30:15.758Z,0
2019-02-04T01:31:16.189Z,0
2019-02-04T01:32:17.334Z,0
2019-02-04T01:33:18.300Z,0
2019-02-04T01:34:19.281Z,0
2019-02-04T01:35:21.035Z,0
2019-02-04T01:36:20.754Z,0
2019-02-04T01:37:21.161Z,0
2019-02-04T01:38:21.993Z,0
2019-02-04T01:39:22.688Z,0
2019-02-04T01:40:23.400Z,0
2019-02-04T01:41:23.630Z,0
2019-02-04T01:42:23.794Z,0
2019-02-04T01:43:24.512Z,0
2019-02-04T01:44:26.684Z,0
2019-02-04T01:45:25.992Z,0
2019-02-04T01:46:26.127Z,0
2019-02-04T01:47:27.207Z,0
2019-02-04T01:48:28.079Z,0
2019-02-04T01:49:28.774Z,0
2019-02-04T01:50:28.933Z,0
2019-02-04T01:51:30.462Z,0
2019-02-04T01:52:31.428Z,0
2019-02-04T01:53:31.125Z,0
2019-02-04T01:54:31.555Z,0
2019-02-04T01:55:32.715Z,0
2019-02-04T01:56:33.857Z,0
2019-02-04T01:57:34.575Z,0
2019-02-04T01:58:34.982Z,0
2019-02-04T01:59:36.392Z,0
2019-02-04T02:00:37.083Z,0
2019-02-04T02:01:39.173Z,0
2019-02-04T02:02:39.530Z,0
2019-02-04T02:03:40.221Z,0
2019-02-04T02:04:41.205Z,0
2019-02-04T02:05:41.627Z,0
2019-02-04T02:06:42.316Z,0
2019-02-04T02:07:43.019Z,0
2019-02-04T02:08:44.972Z,0
2019-02-04T02:09:44.687Z,0
2019-02-04T02:10:47.002Z,0
2019-02-04T02:11:46.169Z,0
2019-02-04T02:12:47.325Z,0
2019-02-04T02:13:48.009Z,0
2019-02-04T02:14:49.000Z,0
2019-02-04T02:15:48.692Z,0
2019-02-04T02:16:49.671Z,0
2019-02-04T02:17:49.475Z,0
2019-02-04T02:18:50.316Z,0
2019-02-04T02:19:50.545Z,0
2019-02-04T02:20:51.049Z,0
2019-02-04T02:21:52.014Z,0
2019-02-04T02:22:52.835Z,0
2019-02-04T02:23:53.257Z,0
2019-02-04T02:24:54.006Z,0
2019-02-04T02:25:54.447Z,0
2019-02-04T02:26:55.512Z,0
2019-02-04T02:27:56.869Z,0
2019-02-04T02:28:57.270Z,0
2019-02-04T02:29:57.699Z,0
2019-02-04T02:30:58.866Z,0
2019-02-04T02:32:00.136Z,0
2019-02-04T02:33:01.241Z,0
2019-02-04T02:34:01.812Z,0
2019-02-04T02:35:02.881Z,0
2019-02-04T02:36:03.296Z,0
2019-02-04T02:37:06.322Z,0
2019-02-04T02:38:04.953Z,0
2019-02-04T02:39:05.341Z,0
2019-02-04T02:40:05.762Z,0
2019-02-04T02:41:08.042Z,0
2019-02-04T02:42:08.432Z,0
2019-02-04T02:43:08.148Z,0
2019-02-04T02:44:09.437Z,0
2019-02-04T02:45:11.281Z,0
2019-02-04T02:46:10.444Z,0
2019-02-04T02:47:11.861Z,0
2019-02-04T02:48:12.839Z,0
2019-02-04T02:49:14.063Z,0
2019-02-04T02:50:14.512Z,0
2019-02-04T02:51:15.503Z,0
2019-02-04T02:52:16.486Z,0
2019-02-04T02:53:17.181Z,0
2019-02-04T02:54:19.733Z,0
2019-02-04T02:55:19.829Z,0
2019-02-04T02:56:20.557Z,0
2019-02-04T02:57:20.986Z,0
2019-02-04T02:58:22.528Z,0
2019-02-04T02:59:22.711Z,0
2019-02-04T03:00:23.689Z,0
2019-02-04T03:01:24.670Z,0
2019-02-04T03:02:25.406Z,0
2019-02-04T03:03:26.675Z,0
2019-02-04T03:04:26.376Z,0
2019-02-04T03:05:26.795Z,0
2019-02-04T03:06:28.513Z,0
2019-02-04T03:07:27.938Z,0
2019-02-04T03:08:28.932Z,0
2019-02-04T03:09:29.374Z,0
2019-02-04T03:10:30.112Z,0
2019-02-04T03:11:31.483Z,0
2019-02-04T03:12:31.344Z,0
2019-02-04T03:13:32.314Z,0
2019-02-04T03:14:32.604Z,0
2019-02-04T03:15:32.974Z,0
2019-02-04T03:16:33.398Z,0
2019-02-04T03:17:34.130Z,0
2019-02-04T03:18:35.832Z,0
2019-02-04T03:19:36.862Z,0
2019-02-04T03:20:39.952Z,0
2019-02-04T03:21:38.515Z,0
2019-02-04T03:22:39.245Z,0
2019-02-04T03:23:40.500Z,0
2019-02-04T03:24:41.221Z,0
2019-02-04T03:25:42.190Z,0
2019-02-04T03:26:43.012Z,0
2019-02-04T03:27:43.439Z,0
2019-02-04T03:28:44.704Z,0
2019-02-04T03:29:45.841Z,0
2019-02-04T03:30:46.965Z,0
2019-02-04T03:31:49.209Z,0
2019-02-04T03:32:49.811Z,0
2019-02-04T03:33:50.870Z,0
2019-02-04T03:34:51.010Z,0
2019-02-04T03:35:52.007Z,0
2019-02-04T03:36:52.458Z,0
2019-02-04T03:37:54.488Z,0
2019-02-04T03:38:55.696Z,0
2019-02-04T03:39:55.702Z,0
2019-02-04T03:40:56.392Z,0
2019-02-04T03:41:57.107Z,0
2019-02-04T03:42:59.241Z,0
2019-02-04T03:43:59.518Z,0
2019-02-04T03:45:00.609Z,0
2019-02-04T03:46:01.518Z,0
2019-02-04T03:47:03.077Z,0
2019-02-04T03:48:15.504Z,0
2019-02-04T03:49:18.153Z,0
2019-02-04T03:50:17.581Z,0
2019-02-04T03:51:18.424Z,0
2019-02-04T03:52:18.396Z,0
2019-02-04T03:53:19.363Z,0
2019-02-04T03:54:19.873Z,0
2019-02-04T03:55:20.585Z,0
2019-02-04T03:56:20.545Z,0
2019-02-04T03:57:21.238Z,0
2019-02-04T03:58:24.118Z,0
2019-02-04T03:59:22.772Z,0
2019-02-04T04:00:24.198Z,0
2019-02-04T04:01:25.241Z,0
2019-02-04T04:02:25.654Z,0
2019-02-04T04:03:25.909Z,0
2019-02-04T04:04:26.055Z,0
2019-02-04T04:05:27.042Z,0
2019-02-04T04:06:28.169Z,0
2019-02-04T04:07:29.881Z,0
2019-02-04T04:08:30.217Z,0
2019-02-04T04:09:30.561Z,0
2019-02-04T04:10:31.544Z,0
2019-02-04T04:11:32.537Z,0
2019-02-04T04:12:33.804Z,0
2019-02-04T04:13:33.799Z,0
2019-02-04T04:14:34.786Z,0
2019-02-04T04:15:36.233Z,0
2019-02-04T04:16:36.234Z,0
2019-02-04T04:17:36.724Z,0
2019-02-04T04:18:37.150Z,0
2019-02-04T04:19:37.712Z,0
2019-02-04T04:20:38.401Z,0
2019-02-04T04:21:39.663Z,0
2019-02-04T04:22:40.077Z,0
2019-02-04T04:23:40.483Z,0
2019-02-04T04:24:43.197Z,0
2019-02-04T04:25:42.176Z,0
2019-02-04T04:26:42.591Z,0
2019-02-04T04:27:42.674Z,0
2019-02-04T04:28:43.376Z,0
2019-02-04T04:29:43.389Z,0
2019-02-04T04:30:44.075Z,0
2019-02-04T04:31:44.776Z,0
2019-02-04T04:32:47.379Z,0
2019-02-04T04:33:46.441Z,0
2019-02-04T04:34:46.586Z,0
2019-02-04T04:35:47.571Z,0
2019-02-04T04:36:48.092Z,0
2019-02-04T04:37:49.344Z,0
2019-02-04T04:38:50.405Z,0
2019-02-04T04:39:50.637Z,0
2019-02-04T04:40:50.840Z,0
2019-02-04T04:41:51.847Z,0
2019-02-04T04:42:52.470Z,0
2019-02-04T04:43:52.918Z,0
2019-02-04T04:44:53.048Z,0
2019-02-04T04:45:54.188Z,0
2019-02-04T04:46:55.608Z,0
2019-02-04T04:47:56.862Z,0
2019-02-04T04:48:57.483Z,0
2019-02-04T04:49:59.361Z,0
2019-02-04T04:50:58.777Z,0
2019-02-04T04:51:59.207Z,0
2019-02-04T04:53:00.913Z,0
2019-02-04T04:54:01.454Z,0
2019-02-04T04:55:02.864Z,0
2019-02-04T04:56:02.584Z,4
2019-02-04T04:57:03.004Z,0
2019-02-04T04:58:03.730Z,0
2019-02-04T04:59:06.178Z,0
2019-02-04T05:00:05.598Z,0
2019-02-04T05:01:06.579Z,0
2019-02-04T05:02:06.274Z,0
2019-02-04T05:03:07.405Z,0
2019-02-04T05:04:08.560Z,0
2019-02-04T05:05:09.575Z,0
2019-02-04T05:06:09.702Z,0
2019-02-04T05:07:11.500Z,0
2019-02-04T05:08:11.203Z,0
2019-02-04T05:09:11.611Z,0
2019-02-04T05:10:12.450Z,0
2019-02-04T05:11:14.010Z,0
2019-02-04T05:12:13.724Z,0
2019-02-04T05:13:14.885Z,0
2019-02-04T05:14:16.305Z,0
2019-02-04T05:15:16.562Z,0
2019-02-04T05:16:19.191Z,0
2019-02-04T05:17:18.570Z,0
2019-02-04T05:18:19.262Z,0
2019-02-04T05:19:20.809Z,0
2019-02-04T05:20:20.366Z,0
2019-02-04T05:21:21.345Z,0
2019-02-04T05:22:22.034Z,0
2019-02-04T05:23:22.745Z,0
2019-02-04T05:24:23.446Z,0
2019-02-04T05:25:26.119Z,0
2019-02-04T05:26:24.668Z,0
2019-02-04T05:27:25.647Z,0
2019-02-04T05:28:26.070Z,0
2019-02-04T05:29:27.340Z,0
2019-02-04T05:30:27.914Z,0
2019-02-04T05:31:28.172Z,0
2019-02-04T05:32:28.862Z,0
2019-02-04T05:33:30.032Z,0
2019-02-04T05:34:30.728Z,0
2019-02-04T05:35:31.443Z,0
2019-02-04T05:36:31.650Z,0
2019-02-04T05:37:31.789Z,0
2019-02-04T05:38:32.486Z,0
2019-02-04T05:39:32.911Z,0
2019-02-04T05:40:33.486Z,0
2019-02-04T05:41:34.461Z,0
2019-02-04T05:42:38.044Z,0
2019-02-04T05:43:37.293Z,0
2019-02-04T05:44:37.716Z,0
2019-02-04T05:45:38.974Z,0
2019-02-04T05:46:39.104Z,0
2019-02-04T05:47:39.378Z,0
2019-02-04T05:48:52.370Z,0
2019-02-04T05:49:52.932Z,0
2019-02-04T05:50:53.668Z,0
2019-02-04T05:51:56.837Z,0
2019-02-04T05:52:58.733Z,0
2019-02-04T05:53:59.993Z,0
2019-02-04T05:55:01.266Z,0
2019-02-04T05:56:01.383Z,0
2019-02-04T05:57:02.640Z,0
2019-02-04T05:58:03.632Z,0
2019-02-04T05:59:04.050Z,0
2019-02-04T06:00:05.474Z,0
2019-02-04T06:01:05.620Z,0
2019-02-04T06:02:10.455Z,0
2019-02-04T06:03:07.154Z,0
2019-02-04T06:04:07.596Z,0
2019-02-04T06:05:08.310Z,0
2019-02-04T06:06:09.580Z,0
2019-02-04T06:07:09.730Z,4
2019-02-04T06:08:10.897Z,4
2019-02-04T06:09:11.048Z,4
2019-02-04T06:10:12.512Z,4
2019-02-04T06:11:12.204Z,0
2019-02-04T06:12:14.025Z,4
2019-02-04T06:13:13.722Z,4
2019-02-04T06:14:14.159Z,4
2019-02-04T06:15:15.492Z,4
2019-02-04T06:16:15.595Z,8
2019-02-04T06:17:16.018Z,8
2019-02-04T06:18:17.444Z,8
2019-02-04T06:19:19.687Z,12
2019-02-04T06:20:19.183Z,12
2019-02-04T06:21:18.873Z,16
2019-02-04T06:22:20.587Z,20
2019-02-04T06:23:21.276Z,24
2019-02-04T06:24:22.303Z,24
2019-02-04T06:25:23.628Z,32
2019-02-04T06:26:23.132Z,36
2019-02-04T06:27:24.551Z,40
2019-02-04T06:28:28.476Z,48
2019-02-04T06:29:28.745Z,56
2019-02-04T06:30:28.908Z,64
2019-02-04T06:31:29.414Z,72
2019-02-04T06:32:29.625Z,84
2019-02-04T06:33:30.354Z,92
2019-02-04T06:34:30.558Z,104
2019-02-04T06:35:31.540Z,116
2019-02-04T06:36:31.686Z,132
2019-02-04T06:37:34.882Z,144
2019-02-04T06:38:33.718Z,160
2019-02-04T06:39:33.859Z,176
2019-02-04T06:40:34.421Z,196
2019-02-04T06:41:35.427Z,216
2019-02-04T06:42:36.235Z,232
2019-02-04T06:43:36.369Z,252
2019-02-04T06:44:37.560Z,272
2019-02-04T06:45:40.337Z,292
2019-02-04T06:46:39.523Z,312
2019-02-04T06:47:41.516Z,340
2019-02-04T06:48:42.221Z,368
2019-02-04T06:49:42.932Z,404
2019-02-04T06:50:43.745Z,436
2019-02-04T06:51:43.961Z,472
2019-02-04T06:52:44.712Z,508
2019-02-04T06:53:45.977Z,548
2019-02-04T06:54:48.158Z,588
2019-02-04T06:55:48.555Z,632
2019-02-04T06:56:50.653Z,676
2019-02-04T06:57:50.722Z,728
2019-02-04T06:58:51.004Z,784
2019-02-04T06:59:51.648Z,852
2019-02-04T07:00:52.413Z,920
2019-02-04T07:01:53.584Z,992
2019-02-04T07:02:55.200Z,1068
2019-02-04T07:03:55.428Z,1144
2019-02-04T07:04:56.344Z,1220
2019-02-04T07:05:56.776Z,1296
2019-02-04T07:06:56.914Z,1364
2019-02-04T07:08:03.157Z,1432
2019-02-04T07:08:11.219Z,1440
2019-02-04T07:09:11.119Z,1504
2019-02-04T07:10:12.004Z,1580
2019-02-04T07:11:13.249Z,1664
2019-02-04T07:12:15.406Z,1748
2019-02-04T07:13:14.564Z,1804
2019-02-04T07:14:15.643Z,1836
2019-02-04T07:15:17.523Z,1852
2019-02-04T07:16:17.997Z,1856
2019-02-04T07:17:18.742Z,1844
2019-02-04T07:18:19.244Z,1844
2019-02-04T07:19:26.832Z,1848
2019-02-04T07:19:32.120Z,1852
2019-02-04T07:20:33.004Z,1864
2019-02-04T07:21:33.716Z,1896
2019-02-04T07:22:34.784Z,1976
2019-02-04T07:23:35.437Z,2112
2019-02-04T07:24:51.131Z,2328
2019-02-04T07:25:49.987Z,2476
2019-02-04T07:26:49.186Z,2568
2019-02-04T07:27:50.280Z,2616
2019-02-04T07:28:51.004Z,2616
2019-02-04T07:29:51.764Z,2568
2019-02-04T07:30:53.023Z,2492
2019-02-04T07:31:53.678Z,2444
2019-02-04T07:32:54.743Z,2432
2019-02-04T07:33:55.755Z,2424
2019-02-04T07:34:55.919Z,2416
2019-02-04T07:35:57.456Z,2416
2019-02-04T07:36:58.336Z,2436
2019-02-04T07:37:58.483Z,2480
2019-02-04T07:38:59.468Z,2536
2019-02-04T07:40:00.453Z,2620
2019-02-04T07:41:01.155Z,2724
2019-02-04T07:42:01.619Z,2844
2019-02-04T07:43:04.560Z,3000
2019-02-04T07:44:04.046Z,3128
2019-02-04T07:45:04.751Z,3276
2019-02-04T07:46:05.253Z,3552
2019-02-04T07:47:06.029Z,4012
2019-02-04T07:48:06.205Z,4428
2019-02-04T07:49:06.720Z,4696
2019-02-04T07:50:08.007Z,5504
2019-02-04T07:51:08.582Z,5968
2019-02-04T07:52:09.313Z,6096
2019-02-04T07:53:10.463Z,6380
2019-02-04T07:54:11.158Z,6512
2019-02-04T07:55:11.817Z,6360
2019-02-04T07:56:12.656Z,6156
2019-02-04T07:57:12.852Z,6396
2019-02-04T07:58:14.155Z,8016
2019-02-04T07:59:14.335Z,10228
2019-02-04T08:00:17.188Z,7344
2019-02-04T08:01:16.933Z,7012
2019-02-04T08:02:16.961Z,7820
2019-02-04T08:03:17.417Z,8740
2019-02-04T08:04:18.277Z,8808
2019-02-04T08:05:19.013Z,8780
2019-02-04T08:06:19.595Z,8700
2019-02-04T08:07:19.737Z,8932
2019-02-04T08:08:20.788Z,9020
2019-02-04T08:09:22.073Z,9088
2019-02-04T08:10:22.111Z,9132
2019-02-04T08:11:23.477Z,9176
2019-02-04T08:12:24.762Z,9216
2019-02-04T08:13:25.474Z,9232
2019-02-04T08:14:26.269Z,9304
2019-02-04T08:15:27.251Z,9348
2019-02-04T08:16:28.091Z,9356
2019-02-04T08:17:30.235Z,9368
2019-02-04T08:18:31.110Z,9316
2019-02-04T08:19:31.249Z,9284
2019-02-04T08:20:32.221Z,9320
2019-02-04T08:21:32.987Z,9332
2019-02-04T08:22:33.770Z,9196
2019-02-04T08:23:34.759Z,9100
2019-02-04T08:24:36.289Z,9072
2019-02-04T08:25:36.852Z,9196
2019-02-04T08:26:43.240Z,9364
2019-02-04T08:26:50.640Z,9372
2019-02-04T08:27:51.565Z,9256
2019-02-04T08:28:52.781Z,9368
2019-02-04T08:29:52.750Z,9640
2019-02-04T08:30:53.740Z,11828
2019-02-04T08:31:54.276Z,11176
2019-02-04T08:32:54.710Z,9324
2019-02-04T08:33:56.540Z,9344
2019-02-04T08:34:57.338Z,9296
2019-02-04T08:35:58.088Z,9164
2019-02-04T08:37:00.202Z,8532
2019-02-04T08:37:59.573Z,10700
2019-02-04T08:39:00.343Z,14512
2019-02-04T08:40:01.617Z,19904
2019-02-04T08:41:01.875Z,24896
2019-02-04T08:42:02.795Z,27168
2019-02-04T08:43:04.013Z,28256
2019-02-04T08:44:04.501Z,25888
2019-02-04T08:45:06.602Z,20224
2019-02-04T08:46:07.870Z,17088
2019-02-04T08:47:08.807Z,15628
2019-02-04T08:48:07.798Z,17216
2019-02-04T08:49:09.191Z,17088
2019-02-04T08:50:09.681Z,11636
2019-02-04T08:51:11.016Z,9532
2019-02-04T08:52:12.050Z,9524
2019-02-04T08:53:12.806Z,16384
2019-02-04T08:54:14.831Z,19328
2019-02-04T08:55:14.822Z,14860
2019-02-04T08:56:15.812Z,24096
2019-02-04T08:57:15.852Z,33184
2019-02-04T08:58:16.433Z,25024
2019-02-04T08:59:19.064Z,15960
2019-02-04T09:00:17.874Z,11660
2019-02-04T09:01:18.720Z,10548
2019-02-04T09:02:21.384Z,10496
2019-02-04T09:03:20.363Z,10456
2019-02-04T09:04:21.104Z,10384
2019-02-04T09:05:21.880Z,10380
2019-02-04T09:06:23.300Z,10412
2019-02-04T09:07:23.337Z,10444
2019-02-04T09:08:24.265Z,10560
2019-02-04T09:09:25.732Z,10540
2019-02-04T09:10:27.605Z,10464
2019-02-04T09:11:27.625Z,10452
2019-02-04T09:12:27.389Z,10456
2019-02-04T09:13:29.287Z,10512
2019-02-04T09:14:29.077Z,10700
2019-02-04T09:15:29.848Z,10712
2019-02-04T09:16:35.487Z,10660
2019-02-04T09:16:46.754Z,10664
2019-02-04T09:16:59.516Z,10680
2019-02-04T09:17:08.900Z,10684
2019-02-04T09:17:20.607Z,10704
2019-02-04T09:18:19.325Z,10880
2019-02-04T09:19:20.093Z,10832
2019-02-04T09:20:20.572Z,10880
2019-02-04T09:21:20.781Z,10928
2019-02-04T09:22:22.527Z,11028
2019-02-04T09:23:22.750Z,11184
2019-02-04T09:24:23.540Z,11300
2019-02-04T09:25:25.964Z,11468
2019-02-04T09:26:25.266Z,11640
2019-02-04T09:27:26.311Z,11668
2019-02-04T09:28:25.939Z,11692
2019-02-04T09:29:26.691Z,11740
2019-02-04T09:30:27.243Z,11708
2019-02-04T09:31:33.384Z,11744
2019-02-04T09:31:41.610Z,11716
2019-02-04T09:32:42.948Z,20416
2019-02-04T09:33:42.472Z,40416
2019-02-04T09:34:42.933Z,43584
2019-02-04T09:35:45.713Z,28832
2019-02-04T09:36:45.621Z,13316
2019-02-04T09:37:45.731Z,13168
2019-02-04T09:38:47.160Z,15444
2019-02-04T09:39:48.551Z,13944
2019-02-04T09:40:49.111Z,12636
2019-02-04T09:41:49.302Z,13448
2019-02-04T09:42:49.946Z,12876
2019-02-04T09:43:50.526Z,13340
2019-02-04T09:44:51.564Z,17952
2019-02-04T09:45:53.062Z,18368
2019-02-04T09:46:53.388Z,19968
2019-02-04T09:47:54.450Z,30560
2019-02-04T09:48:54.894Z,25536
2019-02-04T09:49:55.612Z,17184
2019-02-04T09:50:56.737Z,13800
2019-02-04T09:51:57.761Z,13660
2019-02-04T09:53:00.440Z,13820
2019-02-04T09:54:00.241Z,24640
2019-02-04T09:55:00.985Z,39776
2019-02-04T09:56:01.966Z,41984
2019-02-04T09:57:02.725Z,35520
2019-02-04T09:58:03.783Z,29536
2019-02-04T09:59:04.526Z,16488
2019-02-04T10:00:04.969Z,28160
2019-02-04T10:01:06.332Z,36320
2019-02-04T10:02:12.808Z,29952
2019-02-04T10:02:18.546Z,29184
2019-02-04T10:03:20.759Z,29664
2019-02-04T10:04:21.742Z,43840
2019-02-04T10:05:22.612Z,35040
2019-02-04T10:06:24.039Z,24864
2019-02-04T10:07:24.492Z,41120
2019-02-04T10:08:29.460Z,44992
2019-02-04T10:08:41.642Z,42880
2019-02-04T10:09:38.047Z,34624
2019-02-04T10:10:38.490Z,21056
2019-02-04T10:11:38.906Z,15064
2019-02-04T10:12:39.159Z,15140
2019-02-04T10:13:41.145Z,20832
2019-02-04T10:14:42.889Z,30976
2019-02-04T10:15:46.305Z,46304
2019-02-04T10:16:43.031Z,42336
2019-02-04T10:17:42.658Z,24672
2019-02-04T10:18:45.030Z,15828
2019-02-04T10:19:45.621Z,24032
2019-02-04T10:20:47.209Z,33440
2019-02-04T10:21:46.856Z,45408
2019-02-04T10:22:50.142Z,66048
2019-02-04T10:23:49.829Z,60256
2019-02-04T10:24:50.259Z,41792
2019-02-04T10:25:50.998Z,27520
2019-02-04T10:26:51.805Z,39104
2019-02-04T10:27:53.033Z,61824
2019-02-04T10:28:53.321Z,61728
2019-02-04T10:29:54.221Z,57952
2019-02-04T10:30:53.886Z,42944
2019-02-04T10:31:56.988Z,34528
2019-02-04T10:32:56.535Z,50016
2019-02-04T10:33:57.702Z,67136
2019-02-04T10:34:57.443Z,60096
2019-02-04T10:35:58.585Z,31616
2019-02-04T10:36:59.833Z,25248
2019-02-04T10:38:00.387Z,23520
2019-02-04T10:39:01.287Z,38784
2019-02-04T10:40:02.269Z,74528
2019-02-04T10:41:04.054Z,89344
2019-02-04T10:42:04.358Z,88960
2019-02-04T10:43:04.279Z,87744
2019-02-04T10:44:05.229Z,86496
2019-02-04T10:45:05.882Z,85440
2019-02-04T10:46:07.698Z,85472
2019-02-04T10:47:07.338Z,87008
2019-02-04T10:48:09.516Z,87648
2019-02-04T10:49:11.189Z,86816
2019-02-04T10:50:11.273Z,85120
2019-02-04T10:51:11.833Z,83776
2019-02-04T10:52:12.266Z,81248
2019-02-04T10:53:13.074Z,82528
2019-02-04T10:54:13.072Z,83104
2019-02-04T10:55:13.316Z,81376
2019-02-04T10:56:18.723Z,79552
2019-02-04T10:57:15.957Z,79840
2019-02-04T10:58:19.123Z,80960
2019-02-04T10:59:18.730Z,80736
2019-02-04T11:00:19.332Z,78624
2019-02-04T11:01:20.182Z,79424
2019-02-04T11:02:20.622Z,79968
2019-02-04T11:03:23.467Z,79968
2019-02-04T11:04:24.282Z,79936
2019-02-04T11:05:24.455Z,78976
2019-02-04T11:06:27.926Z,78464
2019-02-04T11:07:29.932Z,81056
2019-02-04T11:08:32.751Z,81760
2019-02-04T11:09:30.973Z,81888
2019-02-04T11:10:31.926Z,79968
2019-02-04T11:11:32.237Z,79104
2019-02-04T11:12:34.087Z,80576
2019-02-04T11:13:34.904Z,79200
2019-02-04T11:14:35.419Z,77280
2019-02-04T11:15:35.939Z,75104
2019-02-04T11:16:37.458Z,79520
2019-02-04T11:17:41.304Z,80416
2019-02-04T11:18:39.285Z,78880
2019-02-04T11:19:39.750Z,78016
2019-02-04T11:20:40.388Z,80320
2019-02-04T11:21:40.949Z,79872
2019-02-04T11:22:41.645Z,75936
2019-02-04T11:23:41.918Z,72704
2019-02-04T11:24:48.816Z,62080
2019-02-04T11:24:58.833Z,61760
2019-02-04T11:25:11.129Z,62176
2019-02-04T11:25:23.113Z,62656
2019-02-04T11:25:34.056Z,63008
2019-02-04T11:25:42.567Z,64032
2019-02-04T11:26:44.000Z,70592
2019-02-04T11:27:49.537Z,74784
2019-02-04T11:27:58.012Z,75488
2019-02-04T11:29:01.845Z,77888
2019-02-04T11:29:08.441Z,77504
2019-02-04T11:30:09.339Z,75840
2019-02-04T11:31:10.727Z,73664
2019-02-04T11:32:11.267Z,73408
2019-02-04T11:33:13.070Z,55424
2019-02-04T11:34:13.876Z,55040
2019-02-04T11:35:14.270Z,71712
2019-02-04T11:36:14.868Z,68544
2019-02-04T11:37:19.850Z,67680
2019-02-04T11:37:33.135Z,68384
2019-02-04T11:37:41.651Z,68480
2019-02-04T11:38:43.015Z,71616
2019-02-04T11:39:43.043Z,72896
2019-02-04T11:40:48.079Z,56800
2019-02-04T11:41:50.308Z,29184
2019-02-04T11:42:02.948Z,25536
2019-02-04T11:42:11.570Z,24192
2019-02-04T11:43:12.107Z,41024
2019-02-04T11:44:12.795Z,43296
2019-02-04T11:45:12.662Z,27808
2019-02-04T11:46:13.347Z,27840
2019-02-04T11:47:13.599Z,27808
2019-02-04T11:48:14.638Z,40960
2019-02-04T11:49:15.125Z,32224
2019-02-04T11:50:16.415Z,22560
2019-02-04T11:51:17.131Z,24288
2019-02-04T11:52:22.164Z,30368
2019-02-04T11:52:31.186Z,32416
2019-02-04T11:52:43.961Z,33792
2019-02-04T11:53:36.233Z,35520
2019-02-04T11:53:43.602Z,35200
2019-02-04T11:54:42.873Z,27360
2019-02-04T11:55:43.425Z,32224
2019-02-04T11:56:48.199Z,27808
2019-02-04T11:56:57.349Z,27840
2019-02-04T11:57:58.369Z,37120
2019-02-04T11:59:01.785Z,36704
2019-02-04T11:59:10.415Z,34112
2019-02-04T12:00:14.150Z,33728
2019-02-04T12:01:12.823Z,54368
2019-02-04T12:02:14.309Z,60992
2019-02-04T12:03:14.484Z,59168
2019-02-04T12:04:15.228Z,53344
2019-02-04T12:05:17.161Z,51392
2019-02-04T12:06:20.635Z,48416
2019-02-04T12:07:19.832Z,47168
2019-02-04T12:08:20.599Z,45152
2019-02-04T12:09:22.815Z,42016
2019-02-04T12:10:22.194Z,41472
2019-02-04T12:11:23.274Z,41088
2019-02-04T12:12:22.727Z,32960
2019-02-04T12:13:23.924Z,36928
2019-02-04T12:14:24.646Z,53440
2019-02-04T12:15:26.350Z,56160
2019-02-04T12:16:26.147Z,49056
2019-02-04T12:17:28.494Z,36832
2019-02-04T12:18:29.668Z,38816
2019-02-04T12:19:29.752Z,48352
2019-02-04T12:20:30.125Z,49440
2019-02-04T12:21:30.710Z,45632
2019-02-04T12:22:31.363Z,38368
2019-02-04T12:23:31.367Z,35136
2019-02-04T12:24:32.686Z,36032
2019-02-04T12:25:35.091Z,40608
2019-02-04T12:26:37.517Z,33888
2019-02-04T12:27:37.043Z,26400
2019-02-04T12:28:36.487Z,32352
2019-02-04T12:29:36.962Z,41504
2019-02-04T12:30:38.390Z,45600
2019-02-04T12:31:38.396Z,41056
2019-02-04T12:32:38.856Z,41984
2019-02-04T12:33:40.344Z,45664
2019-02-04T12:34:43.289Z,43040
2019-02-04T12:35:41.928Z,40448
2019-02-04T12:36:43.432Z,38464
2019-02-04T12:37:43.618Z,38592
2019-02-04T12:38:49.279Z,34368
2019-02-04T12:39:49.898Z,28704
2019-02-04T12:40:00.125Z,29024
2019-02-04T12:41:03.488Z,35072
2019-02-04T12:41:11.604Z,35232
2019-02-04T12:42:11.705Z,35360
2019-02-04T12:43:17.310Z,32992
2019-02-04T12:43:24.944Z,33120
2019-02-04T12:44:26.114Z,30944
2019-02-04T12:45:27.442Z,30048
2019-02-04T12:46:27.639Z,32480
2019-02-04T12:47:28.357Z,34912
2019-02-04T12:48:29.591Z,33312
2019-02-04T12:49:30.041Z,33824
2019-02-04T12:50:30.350Z,32256
2019-02-04T12:51:35.506Z,31008
2019-02-04T12:52:38.163Z,31136
2019-02-04T12:53:38.617Z,35520
2019-02-04T12:54:38.494Z,31328
2019-02-04T12:55:39.752Z,34368
2019-02-04T12:56:39.918Z,37760
2019-02-04T12:57:41.462Z,36768
2019-02-04T12:58:55.054Z,34944
2019-02-04T12:58:57.421Z,34240
2019-02-04T12:59:56.150Z,33920
2019-02-04T13:00:56.041Z,33312
2019-02-04T13:01:57.037Z,32512
2019-02-04T13:02:57.648Z,35232
2019-02-04T13:03:58.490Z,35904
2019-02-04T13:04:58.660Z,36480
2019-02-04T13:05:59.221Z,38112
2019-02-04T13:07:00.210Z,36640
2019-02-04T13:08:00.936Z,33952
2019-02-04T13:09:06.405Z,34624
2019-02-04T13:09:15.877Z,35168
2019-02-04T13:10:18.486Z,37088
2019-02-04T13:11:16.570Z,35808
2019-02-04T13:12:17.220Z,32448
2019-02-04T13:13:17.657Z,33984
2019-02-04T13:14:19.576Z,35136
2019-02-04T13:15:21.184Z,33728
2019-02-04T13:16:20.452Z,31808
2019-02-04T13:17:21.583Z,31776
2019-02-04T13:18:21.624Z,31360
2019-02-04T13:19:24.239Z,30592
2019-02-04T13:20:23.563Z,16144
2019-02-04T13:21:24.931Z,10088
2019-02-04T13:22:27.294Z,9524
2019-02-04T13:23:27.095Z,9176
2019-02-04T13:24:29.738Z,9124
2019-02-04T13:25:29.305Z,9460
2019-02-04T13:26:29.448Z,9676
2019-02-04T13:27:35.838Z,9612
2019-02-04T13:27:43.944Z,9576
2019-02-04T13:28:43.967Z,9380
2019-02-04T13:29:45.349Z,9500
2019-02-04T13:30:45.781Z,11612
2019-02-04T13:31:45.945Z,17344
2019-02-04T13:32:46.994Z,10032
2019-02-04T13:33:47.805Z,9448